Terminal Aerodrome Forecast
Issued by NWS Tulsa, OK

Home | Current Version | Previous Version | Text Only | Print | Product List | Glossary On
Versions: 1 2 3 4 5 6 7 8 9 10 11 12 13
000
FTUS44 KTSA 281100
TAFFSM
TAF
KFSM 281120Z 2812/2912 03007KT 6SM -RA OVC070
      TEMPO 2812/2814 4SM -RA
     FM281800 01011KT P6SM OVC100
     FM290200 35005KT P6SM BKN250=

USA.gov is the U.S. government's official web portal to all federal, state and local government web resources and services.